• Join FlightAware (Why Join?)
  • Login
  • US Flag 
08:04AM EDT


 

Airport Tracker/Info


-or-


 

Live Flight TrackerFlight Track Log ✈ N1944E ✈ 15-Aug-2013 ✈ KJAC - KSLC

Flight Track Log - Related Links

Times and Time Zones

All times are in EDT time to prevent confusion due to time zone crossing. See the N1944E flight status page for this flight to view local times or setup timezone preferences in your user account.

Time Position Orientation Groundspeed Altitude Reporting Facility
EDT Latitude Longitude Course Direction KTS MPH feet Rate Location/Type
03:58PM 43.5819 -110.7503 216° Southwest 113 130 7,100  Level Salt Lake Center
03:59PM 43.5503 -110.7750 210° Southwest 127 146 7,900 720 Climbing Salt Lake Center
04:00PM 43.5153 -110.7989 206° Southwest 133 153 8,600 780 Climbing Salt Lake Center
04:01PM 43.4719 -110.8267 205° Southwest 138 159 9,600 840 Climbing Salt Lake Center
04:02PM 43.2831 -110.9335 200° South  Level FlightAware Approximate
04:02PM 43.4369 -110.8467 203° Southwest 139 160 10,400  Level Salt Lake Center
04:03PM 43.2314 -110.9686 216° Southwest  Level FlightAware Approximate
04:03PM 43.4017 -110.8719 208° Southwest 141 162 11,000  Level Salt Lake Center
04:04PM 43.3653 -110.8978 207° Southwest 144 166 11,900 900 Climbing Salt Lake Center
04:05PM 43.3267 -110.9197 202° Southwest 148 170 12,900 720 Climbing Salt Lake Center
04:06PM 43.2886 -110.9431 204° Southwest 149 171 13,500 720 Climbing Salt Lake Center
04:07PM 43.2442 -110.9733 206° Southwest 149 171 14,500 780 Climbing Salt Lake Center
04:08PM 43.2181 -111.0122 227° Southwest 156 180 15,200 720 Climbing Salt Lake Center
04:09PM 43.2325 -111.0619 292° West 143 165 16,000 360 Climbing Salt Lake Center
04:10PM 43.1992 -111.1086 226° Southwest 175 201 16,000  Level Salt Lake Center
04:11PM 43.1514 -111.1356 202° Southwest 187 215 16,000  Level Salt Lake Center
04:12PM 43.1022 -111.1594 200° South 187 215 16,100 -60 Climbing Salt Lake Center
04:13PM 43.0519 -111.1833 199° South 194 223 15,900 -60 Descending Salt Lake Center
04:14PM 42.9914 -111.2114 199° South 191 220 16,000 -60 Climbing Salt Lake Center
04:15PM 42.9419 -111.2369 201° Southwest 190 219 15,800 -120 Descending Salt Lake Center
04:16PM 42.8939 -111.2644 203° Southwest 188 216 15,800  Level Salt Lake Center
04:17PM 42.8461 -111.2928 204° Southwest 187 215 15,800  Level Salt Lake Center
04:18PM 42.7989 -111.3222 205° Southwest 186 214 15,800  Level Salt Lake Center
04:19PM 42.7519 -111.3497 203° Southwest 185 213 15,800  Level Salt Lake Center
04:20PM 42.7011 -111.3803 204° Southwest 184 212 15,800  Level Salt Lake Center
04:21PM 42.6544 -111.4114 206° Southwest 187 215 15,800  Level Salt Lake Center
04:22PM 42.5961 -111.4453 203° Southwest 188 216 15,800  Level Salt Lake Center
04:24PM 42.5467 -111.4767 205° Southwest 195 224 15,900  Climbing Salt Lake Center
04:25PM 42.4981 -111.5075 205° Southwest 194 223 15,900 -60 Level Salt Lake Center
04:26PM 42.4469 -111.5400 205° Southwest 200 230 15,800 -60 Descending Salt Lake Center
04:27PM 42.4000 -111.5636 200° South 184 212 15,800  Level Salt Lake Center
04:28PM 42.3522 -111.5911 203° Southwest 186 214 15,800  Level Salt Lake Center
04:29PM 42.2942 -111.6253 204° Southwest 189 217 15,800  Level Salt Lake Center
04:30PM 42.2461 -111.6500 201° Southwest 184 212 15,800  Level Salt Lake Center
04:31PM 42.1986 -111.6783 204° Southwest 185 213 15,800  Level Salt Lake Center
04:32PM 42.1500 -111.7083 205° Southwest 190 219 15,800  Level Salt Lake Center
04:33PM 42.1036 -111.7392 206° Southwest 188 216 15,800  Level Salt Lake Center
04:34PM 42.0558 -111.7678 204° Southwest 187 215 15,800  Level Salt Lake Center
04:35PM 41.9994 -111.8025 205° Southwest 187 215 15,800  Level Salt Lake Center
04:36PM 41.9511 -111.8300 203° Southwest 187 215 15,800  Level Salt Lake Center
04:37PM 41.9025 -111.8556 201° Southwest 189 217 15,900  Climbing Salt Lake Center
04:38PM 41.8542 -111.8850 204° Southwest 191 220 15,900  Level Salt Lake Center
04:39PM 41.8061 -111.9114 202° Southwest 188 216 15,900  Level Salt Lake Center
04:40PM 41.7497 -111.9356 198° South 188 216 15,900  Level Salt Lake Center
04:41PM 41.7058 -111.9650 207° Southwest 189 217 15,900 -660 Level Salt Lake Center
04:42PM 41.6475 -112.0050 207° Southwest 212 244 14,600 -1,080 Descending Salt Lake Center
04:43PM 41.5894 -112.0403 204° Southwest 229 264 13,700 -840 Descending Salt Lake Center
04:44PM 41.5333 -112.0642 198° South 214 246 12,900 -780 Descending Salt Lake Center
04:45PM 41.4739 -112.0744 187° South 214 246 12,100 -480 Descending Salt Lake Center
04:46PM 41.4139 -112.0797 184° South 206 237 12,000 -120 Descending Salt Lake Center
04:47PM 41.3553 -112.0881 186° South 185 213 11,900 -480 Descending Salt Lake Center
04:48PM 41.2975 -112.0908 182° South 198 228 11,100 -480 Descending Salt Lake Center
04:49PM 41.2431 -112.0981 186° South 201 231 11,000 -60 Descending Salt Lake Center
04:50PM 41.1944 -112.1056 187° South 184 212 11,000  Level Salt Lake Center
04:51PM 41.1486 -112.1217 195° South 179 206 11,000  Level Salt Lake Center
04:52PM 41.1006 -112.1406 196° South 188 216 11,000  Level Salt Lake Center
04:53PM 41.0528 -112.1483 187° South 170 196 11,000  Level Salt Lake Center
04:55PM 40.9989 -112.1431 176° South 169 194 11,000  Level Salt Lake Center
04:55PM 40.9586 -112.1406 177° South 169 194 11,000  Level Salt Lake Center
04:56PM 40.9136 -112.1303 170° South 164 189 11,000  Level Salt Lake Center
04:57PM 40.8742 -112.1153 164° South 161 185 11,000  Level Salt Lake Center
04:58PM 40.8331 -112.1036 168° South 152 175 11,000 -240 Level Salt Lake Center
05:00PM 40.7769 -112.0831 164° South 154 177 10,500 -600 Descending Salt Lake Center
05:00PM 40.7389 -112.0731 169° South 180 207 9,800 -840 Descending Salt Lake Center
05:01PM 40.6903 -112.0556 165° South 179 206 9,100 -720 Descending Salt Lake Center
05:02PM 40.6467 -112.0308 157° South 190 219 8,500 -420 Descending Salt Lake Center
05:03PM 40.6431 -112.0003 99° East 165 190 8,500 -780 Level Salt Lake Center
05:03PM 40.6583 -111.9817 43° Northeast 153 176 7,700 -1,380 Descending Salt Lake Center
05:04PM 40.6903 -111.9681 18° North 131 151 6,500 -1,200 Descending Salt Lake Center
05:05PM 40.7083 -111.9619 14° North 128 147 6,000 -1,020 Descending Salt Lake Center
05:06PM 40.7436 -111.9625 359° North 125 144 4,900 -840 Descending Salt Lake Center
05:07PM 40.7753 -111.9622 360° North 117 135 4,300 -600 Descending Salt Lake Center
05:09PM 40.7833 -111.9667 North  Level FlightAware Approximate